Time,TemperatureF,DewpointF,PressureIn,WindDirection,WindDirectionDegrees,WindSpeedMPH,WindSpeedGustMPH,Humidity,HourlyPrecipIn,Conditions,Clouds,dailyrainin,SoftwareType,DateUTC
2013-07-13 00:06:00,54.6,51.0,29.76,ESE,106,0.0,0.0,86,0.00,,,0.00,weatherlink.com 1.10,2013-07-13 06:06:00,
2013-07-13 00:21:00,54.7,51.0,29.77,ESE,106,0.0,0.0,87,0.00,,,0.00,weatherlink.com 1.10,2013-07-13 06:21:00,
2013-07-13 00:36:00,54.5,51.0,29.77,ESE,106,0.0,0.0,87,0.00,,,0.00,weatherlink.com 1.10,2013-07-13 06:36:00,
2013-07-13 00:51:00,54.3,51.0,29.78,ESE,106,0.0,0.0,87,0.00,,,0.00,weatherlink.com 1.10,2013-07-13 06:51:00,
2013-07-13 01:07:00,54.3,51.0,29.78,ESE,106,0.0,1.0,88,0.00,,,0.00,weatherlink.com 1.10,2013-07-13 07:07:00,
2013-07-13 01:22:00,54.5,50.0,29.78,ESE,105,0.0,1.0,86,0.00,,,0.00,weatherlink.com 1.10,2013-07-13 07:22:00,
2013-07-13 01:37:00,54.7,50.0,29.79,ESE,106,0.0,0.0,84,0.00,,,0.00,weatherlink.com 1.10,2013-07-13 07:37:00,
2013-07-13 01:52:00,54.4,51.0,29.79,ESE,106,0.0,0.0,87,0.00,,,0.00,weatherlink.com 1.10,2013-07-13 07:52:00,
2013-07-13 02:07:00,53.7,51.0,29.79,ESE,106,0.0,0.0,89,0.00,,,0.00,weatherlink.com 1.10,2013-07-13 08:07:00,
2013-07-13 02:22:00,53.4,50.0,29.79,ESE,106,0.0,0.0,88,0.00,,,0.00,weatherlink.com 1.10,2013-07-13 08:22:00,
2013-07-13 02:37:00,53.2,50.0,29.79,ESE,106,0.0,1.0,89,0.00,,,0.00,weatherlink.com 1.10,2013-07-13 08:37:00,
2013-07-13 02:52:00,53.3,50.0,29.79,ESE,106,0.0,1.0,88,0.00,,,0.00,weatherlink.com 1.10,2013-07-13 08:52:00,
2013-07-13 03:07:00,52.9,50.0,29.79,ESE,106,0.0,0.0,89,0.00,,,0.00,weatherlink.com 1.10,2013-07-13 09:07:00,
2013-07-13 03:22:00,52.6,49.0,29.79,ESE,106,0.0,1.0,88,0.00,,,0.00,weatherlink.com 1.10,2013-07-13 09:22:00,
2013-07-13 03:37:00,51.9,49.0,29.79,ESE,106,0.0,0.0,89,0.00,,,0.00,weatherlink.com 1.10,2013-07-13 09:37:00,
2013-07-13 03:52:00,51.2,48.0,29.79,ESE,106,0.0,1.0,89,0.00,,,0.00,weatherlink.com 1.10,2013-07-13 09:52:00,
2013-07-13 04:07:00,51.4,49.0,29.79,ESE,106,0.0,1.0,90,0.00,,,0.00,weatherlink.com 1.10,2013-07-13 10:07:00,
2013-07-13 04:22:00,51.4,49.0,29.79,ESE,106,0.0,0.0,90,0.00,,,0.00,weatherlink.com 1.10,2013-07-13 10:22:00,
2013-07-13 04:37:00,52.2,49.0,29.79,ESE,106,0.0,1.0,89,0.00,,,0.00,weatherlink.com 1.10,2013-07-13 10:37:00,
2013-07-13 04:52:00,52.0,49.0,29.79,ESE,106,0.0,0.0,90,0.00,,,0.00,weatherlink.com 1.10,2013-07-13 10:52:00,
2013-07-13 05:07:00,52.0,49.0,29.79,ESE,106,0.0,0.0,90,0.00,,,0.00,weatherlink.com 1.10,2013-07-13 11:07:00,
2013-07-13 05:22:00,52.2,49.0,29.80,ESE,107,0.0,1.0,89,0.00,,,0.00,weatherlink.com 1.10,2013-07-13 11:22:00,
2013-07-13 05:37:00,52.3,49.0,29.80,ESE,106,0.0,2.0,88,0.00,,,0.00,weatherlink.com 1.10,2013-07-13 11:37:00,
2013-07-13 05:52:00,52.2,49.0,29.81,ESE,106,0.0,1.0,89,0.00,,,0.00,weatherlink.com 1.10,2013-07-13 11:52:00,
2013-07-13 06:07:00,52.8,49.0,29.81,ESE,106,0.0,1.0,87,0.00,,,0.00,weatherlink.com 1.10,2013-07-13 12:07:00,
2013-07-13 06:22:00,52.7,50.0,29.82,ESE,107,0.0,0.0,89,0.00,,,0.00,weatherlink.com 1.10,2013-07-13 12:22:00,
2013-07-13 06:37:00,52.8,49.0,29.82,ESE,106,0.0,1.0,88,0.00,,,0.00,weatherlink.com 1.10,2013-07-13 12:37:00,
2013-07-13 06:52:00,53.2,50.0,29.82,ESE,106,0.0,1.0,87,0.00,,,0.00,weatherlink.com 1.10,2013-07-13 12:52:00,
2013-07-13 07:07:00,53.7,51.0,29.83,ESE,106,0.0,1.0,89,0.00,,,0.00,weatherlink.com 1.10,2013-07-13 13:07:00,
2013-07-13 07:22:00,54.4,51.0,29.83,ESE,106,0.0,0.0,89,0.00,,,0.00,weatherlink.com 1.10,2013-07-13 13:22:00,
2013-07-13 07:37:00,55.2,52.0,29.83,ESE,107,0.0,0.0,90,0.00,,,0.00,weatherlink.com 1.10,2013-07-13 13:37:00,
2013-07-13 07:52:00,56.4,53.0,29.83,ESE,107,0.0,0.0,88,0.00,,,0.00,weatherlink.com 1.10,2013-07-13 13:52:00,
2013-07-13 08:07:00,57.6,54.0,29.84,ESE,107,0.0,0.0,86,0.00,,,0.00,weatherlink.com 1.10,2013-07-13 14:07:00,
2013-07-13 08:22:00,59.1,54.0,29.83,ESE,107,0.0,1.0,82,0.00,,,0.00,weatherlink.com 1.10,2013-07-13 14:22:00,
2013-07-13 08:37:00,60.9,54.0,29.84,ESE,108,0.0,1.0,79,0.00,,,0.00,weatherlink.com 1.10,2013-07-13 14:37:00,
2013-07-13 08:53:00,63.0,56.0,29.84,ESE,108,0.0,2.0,77,0.00,,,0.00,weatherlink.com 1.10,2013-07-13 14:53:00,
2013-07-13 09:08:00,65.8,50.0,29.84,ESE,108,0.0,1.0,57,0.00,,,0.00,weatherlink.com 1.10,2013-07-13 15:08:00,
2013-07-13 09:23:00,67.6,51.0,29.84,ESE,117,0.0,3.0,55,0.00,,,0.00,weatherlink.com 1.10,2013-07-13 15:23:00,
2013-07-13 09:38:00,68.8,51.0,29.84,SE,127,1.0,4.0,53,0.00,,,0.00,weatherlink.com 1.10,2013-07-13 15:38:00,
2013-07-13 09:53:00,70.1,48.0,29.84,ESE,116,0.0,4.0,46,0.00,,,0.00,weatherlink.com 1.10,2013-07-13 15:53:00,
2013-07-13 10:08:00,70.0,50.0,29.84,SE,144,1.0,4.0,49,0.00,,,0.00,weatherlink.com 1.10,2013-07-13 16:08:00,
2013-07-13 10:23:00,71.8,46.0,29.84,SE,143,0.0,1.0,40,0.00,,,0.00,weatherlink.com 1.10,2013-07-13 16:23:00,
2013-07-13 10:38:00,74.6,45.0,29.84,East,99,0.0,5.0,35,0.00,,,0.00,weatherlink.com 1.10,2013-07-13 16:38:00,
2013-07-13 10:53:00,76.4,50.0,29.84,SSE,153,3.0,6.0,40,0.00,,,0.00,weatherlink.com 1.10,2013-07-13 16:53:00,
2013-07-13 11:08:00,77.6,47.0,29.84,West,261,5.0,5.0,34,0.00,,,0.00,weatherlink.com 1.10,2013-07-13 17:08:00,
2013-07-13 11:23:00,78.5,48.0,29.84,South,185,4.0,7.0,34,0.00,,,0.00,weatherlink.com 1.10,2013-07-13 17:23:00,
2013-07-13 11:38:00,78.5,45.0,29.84,West,278,4.0,8.0,31,0.00,,,0.00,weatherlink.com 1.10,2013-07-13 17:38:00,
2013-07-13 11:53:00,79.5,46.0,29.83,SW,221,3.0,7.0,31,0.00,,,0.00,weatherlink.com 1.10,2013-07-13 17:53:00,
2013-07-13 12:08:00,77.9,46.0,29.84,South,173,2.0,9.0,32,0.00,,,0.00,weatherlink.com 1.10,2013-07-13 18:08:00,
2013-07-13 12:23:00,75.8,45.0,29.84,SSW,198,1.0,6.0,33,0.00,,,0.00,weatherlink.com 1.10,2013-07-13 18:23:00,
2013-07-13 12:38:00,75.0,47.0,29.85,SE,134,0.0,5.0,37,0.00,,,0.00,weatherlink.com 1.10,2013-07-13 18:38:00,
2013-07-13 12:53:00,74.2,44.0,29.85,SE,145,0.0,5.0,34,0.00,,,0.00,weatherlink.com 1.10,2013-07-13 18:53:00,
2013-07-13 13:08:00,74.5,46.0,29.84,ESE,113,0.0,3.0,37,0.00,,,0.00,weatherlink.com 1.10,2013-07-13 19:08:00,
2013-07-13 13:23:00,74.4,46.0,29.83,SE,144,1.0,2.0,37,0.00,,,0.00,weatherlink.com 1.10,2013-07-13 19:23:00,
2013-07-13 13:38:00,75.4,46.0,29.83,East,101,0.0,2.0,35,0.00,,,0.00,weatherlink.com 1.10,2013-07-13 19:38:00,
2013-07-13 13:53:00,75.5,44.0,29.82,East,93,1.0,2.0,33,0.00,,,0.00,weatherlink.com 1.10,2013-07-13 19:53:00,
2013-07-13 14:08:00,75.5,51.0,29.82,ESE,108,0.0,3.0,42,0.00,,,0.00,weatherlink.com 1.10,2013-07-13 20:08:00,
2013-07-13 14:23:00,75.0,52.0,29.81,SE,136,1.0,5.0,44,0.00,,,0.00,weatherlink.com 1.10,2013-07-13 20:23:00,
2013-07-13 14:38:00,73.7,52.0,29.82,SE,143,2.0,6.0,47,0.00,,,0.00,weatherlink.com 1.10,2013-07-13 20:38:00,
2013-07-13 14:53:00,72.2,51.0,29.82,SE,134,0.0,6.0,48,0.00,,,0.00,weatherlink.com 1.10,2013-07-13 20:53:00,
2013-07-13 15:08:00,72.0,53.0,29.82,SSE,152,3.0,7.0,52,0.00,,,0.00,weatherlink.com 1.10,2013-07-13 21:08:00,
2013-07-13 15:23:00,70.4,52.0,29.82,ESE,106,0.0,5.0,53,0.00,,,0.00,weatherlink.com 1.10,2013-07-13 21:23:00,
2013-07-13 15:38:00,70.7,53.0,29.82,South,181,2.0,4.0,53,0.00,,,0.00,weatherlink.com 1.10,2013-07-13 21:38:00,
2013-07-13 15:53:00,70.4,53.0,29.82,SE,138,0.0,4.0,54,0.00,,,0.00,weatherlink.com 1.10,2013-07-13 21:53:00,
2013-07-13 16:08:00,71.1,52.0,29.81,SE,138,1.0,3.0,51,0.00,,,0.00,weatherlink.com 1.10,2013-07-13 22:08:00,
2013-07-13 16:23:00,70.0,53.0,29.81,SE,146,0.0,4.0,55,0.00,,,0.00,weatherlink.com 1.10,2013-07-13 22:23:00,
2013-07-13 16:38:00,69.2,52.0,29.82,SSE,148,0.0,3.0,55,0.00,,,0.00,weatherlink.com 1.10,2013-07-13 22:38:00,
2013-07-13 16:53:00,67.7,53.0,29.82,ESE,123,0.0,1.0,59,0.00,,,0.00,weatherlink.com 1.10,2013-07-13 22:53:00,
2013-07-13 17:08:00,62.1,55.0,29.82,SE,126,0.0,3.0,77,0.13,,,0.13,weatherlink.com 1.10,2013-07-13 23:08:00,
2013-07-13 17:38:00,57.8,56.0,29.81,ESE,122,0.0,1.0,92,0.15,,,0.15,weatherlink.com 1.10,2013-07-13 23:38:00,
2013-07-13 17:54:00,57.9,56.0,29.80,ESE,113,0.0,1.0,93,0.16,,,0.16,weatherlink.com 1.10,2013-07-13 23:54:00,
2013-07-13 18:08:00,58.3,56.0,29.81,ESE,114,0.0,1.0,93,0.03,,,0.16,weatherlink.com 1.10,2013-07-14 00:08:00,
2013-07-13 18:23:00,58.4,56.0,29.82,ESE,114,0.0,0.0,93,0.03,,,0.16,weatherlink.com 1.10,2013-07-14 00:23:00,
2013-07-13 18:38:00,58.3,56.0,29.81,ESE,122,0.0,1.0,93,0.01,,,0.16,weatherlink.com 1.10,2013-07-14 00:38:00,
2013-07-13 18:54:00,58.1,56.0,29.86,ESE,121,0.0,1.0,94,0.00,,,0.16,weatherlink.com 1.10,2013-07-14 00:54:00,
2013-07-13 19:09:00,56.2,52.0,29.86,NE,53,6.0,8.0,85,0.09,,,0.25,weatherlink.com 1.10,2013-07-14 01:09:00,
2013-07-13 19:24:00,53.5,51.0,29.86,ESE,105,0.0,2.0,91,0.11,,,0.27,weatherlink.com 1.10,2013-07-14 01:24:00,
2013-07-13 19:39:00,53.0,51.0,29.86,SE,142,0.0,2.0,94,0.11,,,0.27,weatherlink.com 1.10,2013-07-14 01:39:00,
2013-07-13 19:54:00,53.3,52.0,29.86,SE,141,0.0,1.0,95,0.11,,,0.27,weatherlink.com 1.10,2013-07-14 01:54:00,
2013-07-13 20:09:00,53.4,52.0,29.86,SE,138,0.0,0.0,95,0.01,,,0.27,weatherlink.com 1.10,2013-07-14 02:09:00,
2013-07-13 20:24:00,53.3,52.0,29.85,SE,133,0.0,0.0,96,0.00,,,0.27,weatherlink.com 1.10,2013-07-14 02:24:00,
2013-07-13 20:39:00,53.2,52.0,29.86,ESE,119,0.0,1.0,96,0.00,,,0.27,weatherlink.com 1.10,2013-07-14 02:39:00,
2013-07-13 20:54:00,52.9,52.0,29.86,ESE,120,0.0,1.0,96,0.00,,,0.27,weatherlink.com 1.10,2013-07-14 02:54:00,
2013-07-13 21:09:00,52.9,52.0,29.86,ESE,117,0.0,1.0,96,0.00,,,0.27,weatherlink.com 1.10,2013-07-14 03:09:00,
2013-07-13 21:24:00,52.6,52.0,29.86,ESE,117,0.0,1.0,96,0.00,,,0.27,weatherlink.com 1.10,2013-07-14 03:24:00,
2013-07-13 21:39:00,52.4,51.0,29.88,ESE,117,0.0,0.0,96,0.00,,,0.27,weatherlink.com 1.10,2013-07-14 03:39:00,
2013-07-13 21:54:00,52.0,51.0,29.89,ESE,117,1.0,1.0,97,0.00,,,0.27,weatherlink.com 1.10,2013-07-14 03:54:00,
2013-07-13 22:09:00,52.0,51.0,29.91,ESE,117,0.0,1.0,97,0.00,,,0.27,weatherlink.com 1.10,2013-07-14 04:09:00,
2013-07-13 22:24:00,52.1,51.0,29.91,ESE,117,0.0,0.0,97,0.00,,,0.27,weatherlink.com 1.10,2013-07-14 04:24:00,
2013-07-13 22:39:00,52.0,51.0,29.92,SE,124,0.0,1.0,97,0.00,,,0.27,weatherlink.com 1.10,2013-07-14 04:39:00,
2013-07-13 22:54:00,51.8,51.0,29.92,ESE,123,0.0,0.0,97,0.00,,,0.27,weatherlink.com 1.10,2013-07-14 04:54:00,
2013-07-13 23:09:00,51.4,51.0,29.92,ESE,123,0.0,0.0,97,0.00,,,0.27,weatherlink.com 1.10,2013-07-14 05:09:00,
2013-07-13 23:24:00,51.3,51.0,29.92,ESE,123,0.0,0.0,97,0.00,,,0.27,weatherlink.com 1.10,2013-07-14 05:24:00,
2013-07-13 23:39:00,51.1,50.0,29.91,ESE,123,0.0,0.0,97,0.00,,,0.27,weatherlink.com 1.10,2013-07-14 05:39:00,
2013-07-13 23:54:00,50.6,50.0,29.91,ESE,123,0.0,0.0,97,0.00,,,0.27,weatherlink.com 1.10,2013-07-14 05:54:00,